Time;durP1;ratioP1;P1;durP2;ratioP2;P2;SDS_P1;SDS_P2;PMS_P1;PMS_P2;Temp;Humidity;BMP_temperature;BMP_pressure;BME280_temperature;BME280_humidity;BME280_pressure;Samples;Min_cycle;Max_cycle;Signal;HPM_P1;HPM_P2
2023/11/16 00:02:14;;;;;;;8.60;4.00;;;;;;;6.37;100.00;98889.98;273001;1269;22214;-86
2023/11/16 00:08:22;;;;;;;7.30;4.30;;;;;;;6.41;100.00;98892.97;271863;1272;22212;-85
2023/11/16 00:14:26;;;;;;;7.60;4.50;;;;;;;6.42;100.00;98891.30;271363;1272;22198;-84
2023/11/16 00:20:28;;;;;;;9.50;4.90;;;;;;;6.44;100.00;98898.39;270835;1270;22355;-85
2023/11/16 00:26:30;;;;;;;9.20;5.00;;;;;;;6.42;100.00;98905.41;273064;1269;22220;-85
2023/11/16 00:32:32;;;;;;;9.50;5.00;;;;;;;6.42;100.00;98904.89;272961;1271;22285;-84
2023/11/16 00:38:35;;;;;;;9.60;4.90;;;;;;;6.45;100.00;98908.75;272875;1270;23303;-84
2023/11/16 00:44:39;;;;;;;16.20;6.20;;;;;;;6.46;100.00;98910.96;273044;1269;23269;-84
2023/11/16 00:50:43;;;;;;;16.20;6.20;;;;;;;6.47;100.00;98914.72;272930;1270;22217;-85
2023/11/16 00:56:44;;;;;;;11.80;5.80;;;;;;;6.47;100.00;98918.42;272937;1267;22171;-85
2023/11/16 01:02:49;;;;;;;8.20;4.90;;;;;;;6.45;100.00;98917.83;272541;1270;22477;-85
2023/11/16 01:08:50;;;;;;;13.90;5.50;;;;;;;6.38;100.00;98919.00;273235;1264;22377;-85
2023/11/16 01:14:59;;;;;;;10.90;5.50;;;;;;;6.29;100.00;98923.10;272475;1270;23312;-87
2023/11/16 01:21:25;;;;;;;9.90;5.10;;;;;;;6.22;100.00;98933.47;270492;1269;22551;-86
2023/11/16 01:27:30;;;;;;;12.50;6.30;;;;;;;6.15;100.00;98935.91;272425;1269;22224;-85
2023/11/16 01:33:31;;;;;;;11.90;5.70;;;;;;;6.03;100.00;98942.96;272943;1269;22480;-86
2023/11/16 01:39:35;;;;;;;14.10;6.90;;;;;;;5.92;100.00;98946.46;272756;1269;22554;-85
2023/11/16 01:45:38;;;;;;;15.80;7.80;;;;;;;5.84;100.00;98952.20;270689;1269;22600;-85
2023/11/16 01:51:45;;;;;;;13.00;6.70;;;;;;;5.82;100.00;98953.59;271918;1269;22279;-85
2023/11/16 01:57:47;;;;;;;14.40;7.20;;;;;;;5.81;100.00;98952.02;271825;1269;22336;-86
2023/11/16 02:03:51;;;;;;;17.40;6.60;;;;;;;5.81;100.00;98950.91;270535;1270;22771;-85
2023/11/16 02:09:54;;;;;;;11.10;5.20;;;;;;;5.80;100.00;98954.79;271144;1270;23744;-86
2023/11/16 02:15:57;;;;;;;14.20;6.70;;;;;;;5.82;100.00;98955.47;270575;1270;22524;-84
2023/11/16 02:22:19;;;;;;;16.60;6.70;;;;;;;5.85;100.00;98959.14;271184;1269;22213;-86
2023/11/16 02:28:22;;;;;;;13.20;6.50;;;;;;;5.85;100.00;98956.88;272151;1270;23214;-86
2023/11/16 02:34:43;;;;;;;10.30;6.10;;;;;;;5.85;100.00;98956.96;272387;1260;111301;-85
2023/11/16 02:40:46;;;;;;;13.80;6.60;;;;;;;5.87;100.00;98960.51;272386;1273;22399;-85
2023/11/16 02:46:48;;;;;;;17.50;7.60;;;;;;;5.89;100.00;98966.14;273064;1273;22218;-84
2023/11/16 02:53:12;;;;;;;13.50;6.90;;;;;;;5.91;100.00;98974.75;272659;1273;22564;-86
2023/11/16 02:59:14;;;;;;;14.40;7.30;;;;;;;5.90;100.00;98979.84;272392;1273;22243;-84
2023/11/16 03:05:31;;;;;;;;;;;;;;;;;;;;;
2023/11/16 03:11:41;;;;;;;16.30;7.40;;;;;;;5.90;100.00;98995.94;271599;1273;22611;-86
2023/11/16 03:17:46;;;;;;;14.70;7.80;;;;;;;5.87;100.00;98995.23;271016;1271;22200;-86
2023/11/16 03:23:52;;;;;;;13.40;7.40;;;;;;;5.82;100.00;99001.02;271373;1273;22614;-85
2023/11/16 03:29:54;;;;;;;13.20;7.20;;;;;;;5.78;100.00;99002.73;271131;1273;22513;-86
2023/11/16 03:36:16;;;;;;;14.90;6.60;;;;;;;5.73;100.00;99008.13;271480;1265;22675;-86
2023/11/16 03:42:26;;;;;;;16.80;7.90;;;;;;;5.67;100.00;99015.64;271513;1273;22497;-85
2023/11/16 03:48:30;;;;;;;15.50;7.60;;;;;;;5.67;100.00;99018.27;271481;1273;22489;-84
2023/11/16 03:54:42;;;;;;;15.40;8.50;;;;;;;5.72;100.00;99024.29;271346;1263;23156;-85
2023/11/16 04:00:44;;;;;;;20.10;8.60;;;;;;;5.76;100.00;99021.48;271870;1272;22212;-85
2023/11/16 04:06:46;;;;;;;16.20;8.00;;;;;;;5.80;100.00;99025.00;272071;1272;22571;-87
2023/11/16 04:13:11;;;;;;;14.60;7.50;;;;;;;5.79;100.00;99032.89;273020;1271;22251;-85
2023/11/16 04:19:20;;;;;;;13.20;7.30;;;;;;;5.79;100.00;99033.05;270966;1272;23904;-85
2023/11/16 04:25:54;;;;;;;13.40;7.40;;;;;;;5.79;100.00;99026.30;271372;1273;22281;-85
2023/11/16 04:32:11;;;;;;;10.90;5.70;;;;;;;5.80;100.00;99027.17;272317;1272;22495;-86
2023/11/16 04:38:36;;;;;;;16.60;8.40;;;;;;;5.81;100.00;99027.04;273063;1272;22209;-86
2023/11/16 04:44:38;;;;;;;16.00;8.00;;;;;;;5.83;100.00;99028.56;272371;1272;23313;-85
2023/11/16 04:51:03;;;;;;;14.70;7.70;;;;;;;5.87;100.00;99027.35;272942;1272;22313;-87
2023/11/16 04:57:42;;;;;;;13.30;7.50;;;;;;;5.87;100.00;99031.54;272793;1273;23255;-85
2023/11/16 05:03:44;;;;;;;14.40;8.10;;;;;;;5.91;100.00;99037.88;271790;1271;22207;-84
2023/11/16 05:10:10;;;;;;;16.00;8.00;;;;;;;5.94;100.00;99038.91;270398;1272;22249;-85
2023/11/16 05:16:34;;;;;;;16.50;8.70;;;;;;;5.94;100.00;99045.17;270537;1272;22548;-84
2023/11/16 05:22:38;;;;;;;15.80;7.70;;;;;;;5.94;100.00;99053.55;270382;1271;23290;-85
2023/11/16 05:29:04;;;;;;;11.80;7.30;;;;;;;5.95;100.00;99055.91;271969;1272;23726;-85
2023/11/16 05:35:11;;;;;;;13.60;7.50;;;;;;;5.96;100.00;99059.77;270626;1273;22539;-86
2023/11/16 05:41:14;;;;;;;14.80;7.60;;;;;;;5.97;100.00;99059.80;269642;1272;22622;-85
2023/11/16 05:47:16;;;;;;;14.50;8.10;;;;;;;5.96;100.00;99062.71;270383;1272;22666;-86
2023/11/16 05:53:38;;;;;;;16.30;9.00;;;;;;;5.93;100.00;99065.33;270745;1272;22511;-85
2023/11/16 05:59:40;;;;;;;13.00;8.00;;;;;;;5.90;100.00;99068.66;271279;1265;22565;-85
2023/11/16 06:05:44;;;;;;;13.90;9.10;;;;;;;5.89;100.00;99076.33;271609;1272;26006;-86
2023/11/16 06:11:50;;;;;;;14.90;8.90;;;;;;;5.86;100.00;99078.79;271254;1272;23143;-85
2023/11/16 06:17:55;;;;;;;18.20;10.80;;;;;;;5.81;100.00;99080.31;270921;1272;22549;-85
2023/11/16 06:24:13;;;;;;;18.10;10.60;;;;;;;5.81;100.00;99082.00;271027;1272;22330;-87
2023/11/16 06:30:22;;;;;;;14.30;9.40;;;;;;;5.81;100.00;99077.65;272061;1272;22632;-85
2023/11/16 06:36:26;;;;;;;12.10;9.50;;;;;;;5.76;100.00;99076.27;270181;1272;22328;-85
2023/11/16 06:42:28;;;;;;;13.30;9.90;;;;;;;5.79;100.00;99072.73;270343;1272;22491;-85
2023/11/16 06:48:30;;;;;;;16.80;11.20;;;;;;;5.80;100.00;99062.73;270692;1265;23145;-85
2023/11/16 06:54:33;;;;;;;14.50;9.40;;;;;;;5.84;100.00;99060.32;271744;1272;22383;-85
2023/11/16 07:00:38;;;;;;;12.50;9.20;;;;;;;5.86;100.00;99051.46;272644;1272;23504;-85
2023/11/16 07:06:40;;;;;;;15.00;9.40;;;;;;;5.91;100.00;99063.16;271629;1272;22566;-87
2023/11/16 07:12:46;;;;;;;12.80;8.70;;;;;;;5.95;100.00;99061.44;272261;1272;22380;-86
2023/11/16 07:18:49;;;;;;;10.90;6.10;;;;;;;6.01;100.00;99063.79;272277;1272;23142;-87
2023/11/16 07:24:51;;;;;;;9.30;6.50;;;;;;;6.03;100.00;99063.13;272165;1274;22194;-85
2023/11/16 07:30:53;;;;;;;7.60;5.30;;;;;;;6.05;100.00;99064.67;270697;1270;22222;-85
2023/11/16 07:36:56;;;;;;;9.30;6.30;;;;;;;6.18;100.00;99067.86;272438;1272;22230;-86
2023/11/16 07:42:58;;;;;;;7.30;4.80;;;;;;;6.28;100.00;99066.22;272367;1273;22228;-86
2023/11/16 07:49:04;;;;;;;7.80;5.40;;;;;;;6.31;100.00;99067.16;272400;1272;22424;-85
2023/11/16 07:55:09;;;;;;;8.40;5.10;;;;;;;6.43;100.00;99059.11;271427;1269;22075;-86
2023/11/16 08:01:16;;;;;;;10.10;4.40;;;;;;;6.54;100.00;99056.09;272801;1272;22182;-86
2023/11/16 08:07:24;;;;;;;7.80;4.80;;;;;;;6.67;100.00;99068.34;271982;1273;22673;-86
2023/11/16 08:13:26;;;;;;;9.20;4.70;;;;;;;6.73;100.00;99074.11;270930;1272;22389;-86
2023/11/16 08:19:31;;;;;;;8.40;5.30;;;;;;;6.77;100.00;99077.18;271730;1272;22402;-86
2023/11/16 08:25:33;;;;;;;7.40;4.50;;;;;;;6.83;100.00;99069.48;272203;1272;23819;-86
2023/11/16 08:31:38;;;;;;;10.20;5.00;;;;;;;6.91;100.00;99067.20;271819;1272;23104;-85
2023/11/16 08:37:44;;;;;;;10.60;5.00;;;;;;;7.04;100.00;99062.71;271841;1269;22520;-86
2023/11/16 08:43:47;;;;;;;11.00;5.10;;;;;;;7.22;100.00;99060.79;271517;1272;23384;-86
2023/11/16 08:49:50;;;;;;;6.40;3.60;;;;;;;7.38;100.00;99062.27;272296;1272;23562;-85
2023/11/16 08:55:52;;;;;;;9.20;5.60;;;;;;;7.41;100.00;99059.77;272438;1273;22428;-85
2023/11/16 09:01:56;;;;;;;8.90;4.30;;;;;;;7.40;100.00;99061.08;272372;1272;23550;-85
2023/11/16 09:08:03;;;;;;;6.20;3.30;;;;;;;7.36;100.00;99060.17;271875;1272;22217;-85
2023/11/16 09:14:05;;;;;;;8.30;5.20;;;;;;;7.28;100.00;99056.96;271741;1272;22892;-85
2023/11/16 09:20:10;;;;;;;8.80;5.00;;;;;;;7.30;100.00;99053.67;270455;1268;22576;-85
2023/11/16 09:26:12;;;;;;;10.50;5.90;;;;;;;7.34;100.00;99049.19;270615;1272;22185;-86
2023/11/16 09:32:15;;;;;;;8.50;3.90;;;;;;;7.55;100.00;99053.05;272185;1272;149688;-86
2023/11/16 09:38:18;;;;;;;7.90;4.70;;;;;;;7.70;100.00;99044.75;272059;1272;23020;-86
2023/11/16 09:44:27;;;;;;;7.40;4.00;;;;;;;7.69;100.00;99041.67;271483;1272;22218;-86
2023/11/16 09:50:29;;;;;;;;;;;;;;;7.63;100.00;99036.81;271771;1264;24411;-86
2023/11/16 09:56:36;;;;;;;7.60;4.30;;;;;;;7.65;100.00;99024.71;271952;1268;22555;-85
2023/11/16 10:02:42;;;;;;;10.10;5.80;;;;;;;7.80;100.00;99018.02;271184;1272;22416;-85
2023/11/16 10:08:46;;;;;;;11.40;6.00;;;;;;;7.84;100.00;99011.77;272567;1272;22231;-85
2023/11/16 10:14:51;;;;;;;10.20;5.70;;;;;;;8.00;100.00;99005.71;271737;1273;22642;-86
2023/11/16 10:20:54;;;;;;;10.00;6.30;;;;;;;8.12;100.00;98997.46;271718;1271;22423;-86
2023/11/16 10:26:58;;;;;;;11.30;6.30;;;;;;;8.11;100.00;98995.10;271795;1268;23246;-86
2023/11/16 10:33:00;;;;;;;8.40;5.60;;;;;;;8.17;100.00;98991.95;270684;1273;22578;-86
2023/11/16 10:39:11;;;;;;;10.10;6.20;;;;;;;8.16;100.00;98988.96;270805;1272;22222;-86
2023/11/16 10:45:14;;;;;;;10.70;6.30;;;;;;;8.23;100.00;98967.16;272177;1272;22575;-85
2023/11/16 10:51:17;;;;;;;9.40;5.10;;;;;;;8.29;100.00;98949.84;271876;1272;22418;-86
2023/11/16 10:57:20;;;;;;;8.30;5.60;;;;;;;8.33;100.00;98948.83;270951;1272;22602;-85
2023/11/16 11:03:26;;;;;;;7.30;5.00;;;;;;;8.45;100.00;98941.65;271606;1272;22655;-86
2023/11/16 11:09:42;;;;;;;7.80;4.70;;;;;;;8.55;100.00;98937.23;271358;1269;22533;-85
2023/11/16 11:15:48;;;;;;;6.10;3.80;;;;;;;8.64;100.00;98931.79;271187;1273;22584;-86
2023/11/16 11:22:00;;;;;;;7.10;3.70;;;;;;;8.90;100.00;98936.44;272160;1264;22435;-85
2023/11/16 11:28:14;;;;;;;6.80;3.70;;;;;;;9.01;100.00;98928.59;270973;1272;22837;-85
2023/11/16 11:34:16;;;;;;;5.40;3.30;;;;;;;9.13;100.00;98922.09;271092;1272;25334;-85
2023/11/16 11:40:24;;;;;;;7.30;3.60;;;;;;;9.32;100.00;98916.99;270730;1273;22551;-85
2023/11/16 11:46:26;;;;;;;6.90;3.50;;;;;;;9.50;100.00;98914.52;271862;1271;23401;-85
2023/11/16 11:52:29;;;;;;;6.10;3.50;;;;;;;9.50;100.00;98908.59;269901;1268;22468;-85
2023/11/16 11:58:32;;;;;;;7.30;3.90;;;;;;;9.38;100.00;98897.79;270062;1272;22561;-85
2023/11/16 12:04:35;;;;;;;6.40;4.10;;;;;;;9.28;100.00;98897.73;268951;1269;24551;-85
2023/11/16 12:10:39;;;;;;;10.70;3.80;;;;;;;9.28;100.00;98888.76;271786;1273;22594;-85
2023/11/16 12:16:45;;;;;;;6.10;3.60;;;;;;;9.34;100.00;98877.44;273040;1273;22220;-84
2023/11/16 12:22:49;;;;;;;4.30;3.50;;;;;;;9.35;100.00;98860.61;269933;1273;22510;-85
2023/11/16 12:28:53;;;;;;;6.90;3.60;;;;;;;9.34;100.00;98845.05;270203;1272;23908;-85
2023/11/16 12:34:55;;;;;;;6.80;4.00;;;;;;;9.30;100.00;98845.23;269968;1268;23815;-85
2023/11/16 12:40:57;;;;;;;6.10;4.10;;;;;;;9.28;100.00;98831.00;269783;1272;22551;-85
2023/11/16 12:46:59;;;;;;;7.20;3.80;;;;;;;9.29;100.00;98824.06;271359;1272;22994;-85
2023/11/16 12:53:01;;;;;;;5.70;3.60;;;;;;;9.36;100.00;98823.08;272404;1271;22228;-85
2023/11/16 12:59:03;;;;;;;13.30;7.10;;;;;;;9.45;100.00;98825.76;272473;1264;23307;-85
2023/11/16 13:05:06;;;;;;;10.70;6.20;;;;;;;9.55;100.00;98813.86;272462;1272;24588;-86
2023/11/16 13:11:08;;;;;;;10.60;7.20;;;;;;;9.66;100.00;98818.13;272419;1273;22405;-85
2023/11/16 13:17:10;;;;;;;12.50;7.90;;;;;;;9.70;100.00;98809.89;271932;1272;22239;-85
2023/11/16 13:23:12;;;;;;;13.80;7.30;;;;;;;9.68;100.00;98801.98;272412;1273;22187;-86
2023/11/16 13:29:14;;;;;;;7.40;4.90;;;;;;;9.59;100.00;98805.39;272376;1271;23597;-86
2023/11/16 13:35:16;;;;;;;7.40;3.40;;;;;;;9.48;100.00;98801.13;271177;1272;25429;-87
2023/11/16 13:41:18;;;;;;;7.10;2.70;;;;;;;9.31;100.00;98789.59;272023;1273;23235;-86
2023/11/16 13:47:19;;;;;;;8.00;2.80;;;;;;;9.14;100.00;98781.02;272241;1273;24035;-85
2023/11/16 13:53:22;;;;;;;7.40;3.50;;;;;;;9.06;100.00;98780.36;270364;1273;22275;-87
2023/11/16 13:59:25;;;;;;;7.20;2.80;;;;;;;9.05;100.00;98774.34;270687;1272;23093;-85
2023/11/16 14:05:26;;;;;;;4.80;2.80;;;;;;;9.08;100.00;98764.33;271050;1272;22566;-86
2023/11/16 14:11:28;;;;;;;5.00;2.80;;;;;;;9.09;100.00;98763.65;270928;1272;22557;-86
2023/11/16 14:17:31;;;;;;;6.90;3.50;;;;;;;9.06;100.00;98765.08;271440;1264;22489;-86
2023/11/16 14:23:34;;;;;;;8.60;3.20;;;;;;;8.99;100.00;98767.25;273207;1273;22459;-85
2023/11/16 14:29:37;;;;;;;7.50;3.20;;;;;;;8.93;100.00;98766.77;271151;1264;24225;-85
2023/11/16 14:35:38;;;;;;;10.40;4.40;;;;;;;8.82;100.00;98768.17;270229;1273;22432;-85
2023/11/16 14:41:45;;;;;;;8.80;4.10;;;;;;;8.70;100.00;98772.30;270579;1273;22269;-85
2023/11/16 14:47:47;;;;;;;6.50;3.80;;;;;;;8.62;100.00;98775.37;271212;1273;22414;-85
2023/11/16 14:53:48;;;;;;;8.90;4.60;;;;;;;8.50;100.00;98765.58;271162;1272;22189;-86
2023/11/16 14:59:51;;;;;;;9.60;4.70;;;;;;;8.36;100.00;98753.13;271586;1273;22588;-86
2023/11/16 15:05:53;;;;;;;10.80;5.90;;;;;;;8.25;100.00;98741.50;271710;1272;24257;-86
2023/11/16 15:11:58;;;;;;;8.70;4.90;;;;;;;8.20;100.00;98736.88;271533;1271;23804;-86
2023/11/16 15:18:05;;;;;;;8.40;4.90;;;;;;;8.15;100.00;98733.13;271139;1264;22576;-86
2023/11/16 15:24:14;;;;;;;12.20;5.00;;;;;;;8.08;100.00;98723.96;271485;1272;22410;-85
2023/11/16 15:30:24;;;;;;;9.20;5.30;;;;;;;7.98;100.00;98722.48;272238;1264;23212;-85
2023/11/16 15:36:29;;;;;;;10.00;5.10;;;;;;;7.88;100.00;98718.90;271148;1272;22736;-85
2023/11/16 15:42:32;;;;;;;10.00;4.60;;;;;;;7.82;100.00;98716.45;270959;1272;23321;-86
2023/11/16 15:48:35;;;;;;;9.40;4.80;;;;;;;7.73;100.00;98712.16;271204;1272;22307;-85
2023/11/16 15:54:46;;;;;;;11.10;5.30;;;;;;;7.67;100.00;98715.01;271008;1267;22551;-86
2023/11/16 16:00:48;;;;;;;7.40;4.10;;;;;;;7.58;100.00;98706.29;272026;1271;22425;-86
2023/11/16 16:06:51;;;;;;;9.50;5.10;;;;;;;7.52;100.00;98700.49;272662;1272;22572;-87
2023/11/16 16:12:52;;;;;;;28.00;18.60;;;;;;;7.48;100.00;98702.68;272756;1273;22614;-85
2023/11/16 16:18:57;;;;;;;21.90;13.00;;;;;;;7.46;100.00;98688.95;272520;1273;22657;-86
2023/11/16 16:24:59;;;;;;;19.50;12.80;;;;;;;7.43;100.00;98680.41;272554;1272;23765;-86
2023/11/16 16:31:05;;;;;;;20.40;11.70;;;;;;;7.43;100.00;98675.04;272254;1271;22552;-85
2023/11/16 16:37:34;;;;;;;14.50;10.00;;;;;;;7.43;100.00;98667.56;271279;1272;25313;-86
2023/11/16 16:43:41;;;;;;;22.50;12.60;;;;;;;7.36;100.00;98669.39;270894;1271;22575;-86
2023/11/16 16:49:51;;;;;;;25.00;13.30;;;;;;;7.28;100.00;98668.37;272119;1273;22364;-85
2023/11/16 16:55:58;;;;;;;32.60;16.80;;;;;;;7.23;100.00;98659.98;271706;1268;23205;-85
2023/11/16 17:02:04;;;;;;;28.50;15.10;;;;;;;7.17;100.00;98657.98;271649;1272;23005;-86
2023/11/16 17:08:06;;;;;;;33.90;17.80;;;;;;;7.15;100.00;98661.83;272217;1264;22225;-86
2023/11/16 17:14:08;;;;;;;23.80;13.70;;;;;;;7.13;100.00;98656.98;272599;1272;22213;-85
2023/11/16 17:20:13;;;;;;;20.10;11.90;;;;;;;7.12;100.00;98657.05;271402;1267;22938;-85
2023/11/16 17:26:17;;;;;;;24.40;12.90;;;;;;;7.11;100.00;98652.27;272191;1272;22601;-83
2023/11/16 17:32:19;;;;;;;32.40;17.10;;;;;;;7.06;100.00;98643.16;272342;1272;22777;-85
2023/11/16 17:38:21;;;;;;;36.40;22.70;;;;;;;7.02;100.00;98640.73;272063;1272;22333;-85
2023/11/16 17:44:27;;;;;;;29.20;17.50;;;;;;;6.96;100.00;98640.23;271671;1271;22407;-86
2023/11/16 17:50:29;;;;;;;34.70;21.20;;;;;;;6.92;100.00;98636.42;257419;1273;10002000;-87
2023/11/16 17:56:31;;;;;;;41.20;24.80;;;;;;;6.90;100.00;98631.71;272538;1272;22443;-86
2023/11/16 18:02:33;;;;;;;48.80;28.90;;;;;;;6.85;100.00;98633.88;271817;1272;22475;-86
2023/11/16 18:08:44;;;;;;;63.90;29.00;;;;;;;6.79;100.00;98637.70;272482;1265;22475;-85
2023/11/16 18:14:47;;;;;;;48.60;21.50;;;;;;;6.76;100.00;98636.89;270383;1272;23335;-85
2023/11/16 18:20:52;;;;;;;47.70;22.40;;;;;;;6.78;100.00;98635.05;271759;1258;22429;-86
2023/11/16 18:26:54;;;;;;;39.80;21.20;;;;;;;6.76;100.00;98633.38;272399;1272;22321;-85
2023/11/16 18:32:56;;;;;;;31.60;17.00;;;;;;;6.75;100.00;98632.36;272460;1272;22884;-86
2023/11/16 18:38:58;;;;;;;25.10;14.30;;;;;;;6.79;100.00;98632.42;272294;1256;22215;-86
2023/11/16 18:45:02;;;;;;;29.20;15.40;;;;;;;6.84;100.00;98634.63;272472;1271;22225;-85
2023/11/16 18:51:06;;;;;;;29.70;16.00;;;;;;;6.88;100.00;98629.20;272391;1271;22275;-85
2023/11/16 18:57:08;;;;;;;29.90;18.70;;;;;;;6.88;100.00;98617.60;272413;1268;22484;-84
2023/11/16 19:03:15;;;;;;;33.30;19.80;;;;;;;6.85;100.00;98608.23;272038;1271;24402;-86
2023/11/16 19:09:21;;;;;;;29.60;17.40;;;;;;;6.79;100.00;98598.23;272343;1264;23535;-85
2023/11/16 19:15:23;;;;;;;33.50;19.40;;;;;;;6.75;100.00;98593.25;272268;1272;22427;-86
2023/11/16 19:22:04;;;;;;;35.70;21.30;;;;;;;6.73;100.00;98580.79;272205;1264;22607;-87
2023/11/16 19:28:13;;;;;;;31.40;19.40;;;;;;;6.71;100.00;98567.85;272167;1272;23801;-86
2023/11/16 19:34:18;;;;;;;37.80;19.70;;;;;;;6.70;100.00;98560.91;271708;1272;22243;-86
2023/11/16 19:40:23;;;;;;;32.10;18.10;;;;;;;6.73;100.00;98552.95;271703;1272;22556;-86
2023/11/16 19:46:31;;;;;;;31.80;17.50;;;;;;;6.76;100.00;98550.13;271372;1265;22428;-86
2023/11/16 19:52:36;;;;;;;44.80;27.30;;;;;;;6.70;100.00;98545.13;271946;1272;23188;-86
2023/11/16 19:58:38;;;;;;;46.20;27.90;;;;;;;6.64;100.00;98541.27;271201;1264;25314;-87
2023/11/16 20:04:41;;;;;;;46.50;28.00;;;;;;;6.62;100.00;98538.14;270682;1272;22632;-86
2023/11/16 20:10:44;;;;;;;42.00;26.30;;;;;;;6.60;100.00;98524.02;271552;1265;23526;-86
2023/11/16 20:16:46;;;;;;;43.40;25.70;;;;;;;6.55;100.00;98515.78;272551;1272;23471;-86
2023/11/16 20:22:49;;;;;;;48.10;25.30;;;;;;;6.50;100.00;98502.70;272444;1265;22215;-86
2023/11/16 20:28:57;;;;;;;46.80;27.70;;;;;;;6.47;100.00;98489.52;272480;1272;23624;-86
2023/11/16 20:34:59;;;;;;;52.90;32.10;;;;;;;6.43;100.00;98483.02;272019;1272;22559;-85
2023/11/16 20:41:03;;;;;;;54.20;32.60;;;;;;;6.37;100.00;98467.04;271489;1266;22549;-86
2023/11/16 20:47:06;;;;;;;67.40;36.60;;;;;;;6.34;100.00;98457.12;271322;1272;22397;-86
2023/11/16 20:53:11;;;;;;;57.80;34.80;;;;;;;6.28;100.00;98447.20;271876;1265;22963;-87
2023/11/16 20:59:17;;;;;;;63.70;35.60;;;;;;;6.26;100.00;98442.04;271357;1272;22572;-86
2023/11/16 21:05:20;;;;;;;52.10;30.70;;;;;;;6.24;100.00;98437.42;270888;1272;23921;-86
2023/11/16 21:11:21;;;;;;;56.10;30.30;;;;;;;6.23;100.00;98428.80;269990;1272;22449;-86
2023/11/16 21:17:23;;;;;;;53.60;32.20;;;;;;;6.23;100.00;98425.61;270906;1272;22509;-86
2023/11/16 21:23:27;;;;;;;58.50;32.30;;;;;;;6.22;100.00;98416.35;271325;1266;23311;-87
2023/11/16 21:29:29;;;;;;;57.40;33.30;;;;;;;6.20;100.00;98413.61;272182;1272;262776;-87
2023/11/16 21:35:30;;;;;;;65.90;34.50;;;;;;;6.21;100.00;98413.92;271327;1272;22545;-86
2023/11/16 21:41:36;;;;;;;55.90;33.30;;;;;;;6.21;100.00;98405.06;272353;1272;22389;-86
2023/11/16 21:47:40;;;;;;;63.30;33.60;;;;;;;6.21;100.00;98398.16;272491;1272;22453;-87
2023/11/16 21:53:42;;;;;;;55.80;31.90;;;;;;;6.21;100.00;98389.16;271738;1272;23735;-87
2023/11/16 21:59:44;;;;;;;55.60;33.30;;;;;;;6.20;100.00;98383.16;272239;1272;22432;-87
2023/11/16 22:05:46;;;;;;;60.10;32.90;;;;;;;6.19;100.00;98370.09;271359;1272;22224;-87
2023/11/16 22:11:49;;;;;;;60.00;33.30;;;;;;;6.18;100.00;98356.73;272139;1272;22555;-85
2023/11/16 22:18:07;;;;;;;53.90;33.00;;;;;;;6.19;100.00;98350.45;272039;1268;22464;-87
2023/11/16 22:24:09;;;;;;;53.80;31.30;;;;;;;6.17;100.00;98362.05;272290;1271;22540;-86
2023/11/16 22:30:23;;;;;;;51.80;30.30;;;;;;;6.15;100.00;98362.02;269989;1265;22590;-86
2023/11/16 22:36:26;;;;;;;51.50;28.10;;;;;;;6.17;100.00;98362.20;271172;1272;22591;-85
2023/11/16 22:42:30;;;;;;;58.10;33.40;;;;;;;6.17;100.00;98353.90;271220;1272;23697;-86
2023/11/16 22:48:33;;;;;;;55.90;33.50;;;;;;;6.11;100.00;98327.33;271480;1272;22495;-84
2023/11/16 22:54:36;;;;;;;53.00;32.00;;;;;;;6.09;100.00;98320.77;271019;1264;22446;-86
2023/11/16 23:00:49;;;;;;;53.30;33.20;;;;;;;6.09;100.00;98320.14;271442;1272;22549;-85
2023/11/16 23:07:09;;;;;;;54.60;33.40;;;;;;;6.10;100.00;98311.77;271347;1266;23621;-86
2023/11/16 23:13:11;;;;;;;54.30;34.40;;;;;;;6.10;100.00;98304.40;271378;1272;22547;-85
2023/11/16 23:19:15;;;;;;;58.00;35.60;;;;;;;6.10;100.00;98298.42;271584;1272;22227;-86
2023/11/16 23:25:17;;;;;;;55.40;34.50;;;;;;;6.12;100.00;98298.21;271888;1265;22207;-86
2023/11/16 23:31:19;;;;;;;53.50;33.40;;;;;;;6.11;100.00;98295.88;272580;1273;23647;-86
2023/11/16 23:37:21;;;;;;;52.80;32.80;;;;;;;6.12;100.00;98293.34;271024;1272;25628;-86
2023/11/16 23:43:23;;;;;;;51.70;32.40;;;;;;;6.12;100.00;98288.45;271448;1261;22219;-88
2023/11/16 23:49:27;;;;;;;49.30;30.50;;;;;;;6.12;100.00;98286.03;272374;1272;22393;-85
2023/11/16 23:55:29;;;;;;;57.20;34.40;;;;;;;6.11;100.00;98286.02;272318;1272;22407;-85
